sensor_id;sensor_type;location;lat;lon;timestamp;temperature;humidity
14000;DHT22;7075;53.574;10.054;2023-05-10T00:00:52;17.70;72.70
14000;DHT22;7075;53.574;10.054;2023-05-10T00:03:18;17.70;73.30
14000;DHT22;7075;53.574;10.054;2023-05-10T00:05:44;17.60;73.90
14000;DHT22;7075;53.574;10.054;2023-05-10T00:08:09;17.60;74.00
14000;DHT22;7075;53.574;10.054;2023-05-10T00:10:35;17.60;74.60
14000;DHT22;7075;53.574;10.054;2023-05-10T00:13:02;17.50;75.60
14000;DHT22;7075;53.574;10.054;2023-05-10T00:15:28;17.50;76.40
14000;DHT22;7075;53.574;10.054;2023-05-10T00:17:56;17.50;77.20
14000;DHT22;7075;53.574;10.054;2023-05-10T00:20:22;17.40;77.70
14000;DHT22;7075;53.574;10.054;2023-05-10T00:22:47;17.40;78.30
14000;DHT22;7075;53.574;10.054;2023-05-10T00:25:13;17.40;79.00
14000;DHT22;7075;53.574;10.054;2023-05-10T00:27:39;17.30;79.30
14000;DHT22;7075;53.574;10.054;2023-05-10T00:30:05;17.30;80.60
14000;DHT22;7075;53.574;10.054;2023-05-10T00:32:31;17.30;81.30
14000;DHT22;7075;53.574;10.054;2023-05-10T00:34:57;17.30;82.00
14000;DHT22;7075;53.574;10.054;2023-05-10T00:37:23;17.20;82.30
14000;DHT22;7075;53.574;10.054;2023-05-10T00:39:48;17.20;83.50
14000;DHT22;7075;53.574;10.054;2023-05-10T00:42:14;17.20;84.40
14000;DHT22;7075;53.574;10.054;2023-05-10T00:44:40;17.20;85.20
14000;DHT22;7075;53.574;10.054;2023-05-10T00:47:05;17.10;85.80
14000;DHT22;7075;53.574;10.054;2023-05-10T00:49:31;17.10;86.40
14000;DHT22;7075;53.574;10.054;2023-05-10T00:51:56;17.10;86.90
14000;DHT22;7075;53.574;10.054;2023-05-10T00:54:22;17.10;87.90
14000;DHT22;7075;53.574;10.054;2023-05-10T00:56:48;17.10;88.60
14000;DHT22;7075;53.574;10.054;2023-05-10T00:59:18;17.10;89.20
14000;DHT22;7075;53.574;10.054;2023-05-10T01:01:45;17.00;90.00
14000;DHT22;7075;53.574;10.054;2023-05-10T01:04:11;17.00;90.40
14000;DHT22;7075;53.574;10.054;2023-05-10T01:06:41;17.00;90.80
14000;DHT22;7075;53.574;10.054;2023-05-10T01:09:07;16.90;91.10
14000;DHT22;7075;53.574;10.054;2023-05-10T01:11:35;16.90;91.90
14000;DHT22;7075;53.574;10.054;2023-05-10T01:14:01;16.90;92.30
14000;DHT22;7075;53.574;10.054;2023-05-10T01:16:27;16.80;92.30
14000;DHT22;7075;53.574;10.054;2023-05-10T01:18:54;16.80;92.80
14000;DHT22;7075;53.574;10.054;2023-05-10T01:24:37;16.70;93.40
14000;DHT22;7075;53.574;10.054;2023-05-10T01:32:43;16.50;95.10
14000;DHT22;7075;53.574;10.054;2023-05-10T01:37:51;16.50;96.00
14000;DHT22;7075;53.574;10.054;2023-05-10T01:40:25;16.50;96.30
14000;DHT22;7075;53.574;10.054;2023-05-10T01:42:53;16.40;96.70
14000;DHT22;7075;53.574;10.054;2023-05-10T01:45:37;16.40;96.80
14000;DHT22;7075;53.574;10.054;2023-05-10T01:48:10;16.40;97.70
14000;DHT22;7075;53.574;10.054;2023-05-10T01:50:37;16.40;98.40
14000;DHT22;7075;53.574;10.054;2023-05-10T01:53:06;16.40;98.80
14000;DHT22;7075;53.574;10.054;2023-05-10T01:55:35;16.30;99.10
14000;DHT22;7075;53.574;10.054;2023-05-10T01:58:13;16.30;99.60
14000;DHT22;7075;53.574;10.054;2023-05-10T02:00:43;16.30;99.70
14000;DHT22;7075;53.574;10.054;2023-05-10T02:03:10;16.20;99.90
14000;DHT22;7075;53.574;10.054;2023-05-10T02:05:37;16.20;99.90
14000;DHT22;7075;53.574;10.054;2023-05-10T02:08:06;16.20;99.90
14000;DHT22;7075;53.574;10.054;2023-05-10T02:10:33;16.20;99.90
14000;DHT22;7075;53.574;10.054;2023-05-10T02:12:59;16.10;99.90
14000;DHT22;7075;53.574;10.054;2023-05-10T02:15:26;16.10;99.90
14000;DHT22;7075;53.574;10.054;2023-05-10T02:17:55;16.00;99.90
14000;DHT22;7075;53.574;10.054;2023-05-10T02:20:22;16.00;99.90
14000;DHT22;7075;53.574;10.054;2023-05-10T02:22:51;16.00;99.90
14000;DHT22;7075;53.574;10.054;2023-05-10T02:25:19;15.90;99.90
14000;DHT22;7075;53.574;10.054;2023-05-10T02:27:47;15.90;99.90
14000;DHT22;7075;53.574;10.054;2023-05-10T02:30:13;15.90;99.90
14000;DHT22;7075;53.574;10.054;2023-05-10T02:32:41;15.90;99.90
14000;DHT22;7075;53.574;10.054;2023-05-10T02:35:07;15.80;99.90
14000;DHT22;7075;53.574;10.054;2023-05-10T02:37:34;15.80;99.90
14000;DHT22;7075;53.574;10.054;2023-05-10T02:40:01;15.80;99.90
14000;DHT22;7075;53.574;10.054;2023-05-10T02:42:29;15.70;99.90
14000;DHT22;7075;53.574;10.054;2023-05-10T02:45:00;15.70;99.90
14000;DHT22;7075;53.574;10.054;2023-05-10T02:47:27;15.70;99.90
14000;DHT22;7075;53.574;10.054;2023-05-10T02:49:53;15.70;99.90
14000;DHT22;7075;53.574;10.054;2023-05-10T02:52:25;15.70;99.90
14000;DHT22;7075;53.574;10.054;2023-05-10T02:54:55;15.60;99.90
14000;DHT22;7075;53.574;10.054;2023-05-10T02:57:27;15.60;99.90
14000;DHT22;7075;53.574;10.054;2023-05-10T02:59:54;15.50;99.90
14000;DHT22;7075;53.574;10.054;2023-05-10T03:02:20;15.50;99.90
14000;DHT22;7075;53.574;10.054;2023-05-10T03:04:46;15.50;99.90
14000;DHT22;7075;53.574;10.054;2023-05-10T03:07:12;15.30;99.90
14000;DHT22;7075;53.574;10.054;2023-05-10T03:13:16;15.40;99.90
14000;DHT22;7075;53.574;10.054;2023-05-10T03:15:57;15.30;99.90
14000;DHT22;7075;53.574;10.054;2023-05-10T03:18:50;15.40;99.90
14000;DHT22;7075;53.574;10.054;2023-05-10T03:21:18;15.30;99.90
14000;DHT22;7075;53.574;10.054;2023-05-10T03:23:59;15.30;99.90
14000;DHT22;7075;53.574;10.054;2023-05-10T03:26:27;15.30;99.90
14000;DHT22;7075;53.574;10.054;2023-05-10T03:28:53;15.30;99.90
14000;DHT22;7075;53.574;10.054;2023-05-10T03:31:19;15.30;99.90
14000;DHT22;7075;53.574;10.054;2023-05-10T03:33:49;15.30;99.90
14000;DHT22;7075;53.574;10.054;2023-05-10T03:36:14;15.30;99.90
14000;DHT22;7075;53.574;10.054;2023-05-10T03:38:40;15.30;99.90
14000;DHT22;7075;53.574;10.054;2023-05-10T03:41:06;15.20;99.90
14000;DHT22;7075;53.574;10.054;2023-05-10T03:43:31;15.30;99.90
14000;DHT22;7075;53.574;10.054;2023-05-10T03:45:57;15.20;99.90
14000;DHT22;7075;53.574;10.054;2023-05-10T03:48:22;15.20;99.90
14000;DHT22;7075;53.574;10.054;2023-05-10T03:50:48;15.20;99.90
14000;DHT22;7075;53.574;10.054;2023-05-10T03:53:15;15.10;99.90
14000;DHT22;7075;53.574;10.054;2023-05-10T03:55:40;15.10;99.90
14000;DHT22;7075;53.574;10.054;2023-05-10T03:58:06;15.10;99.90
14000;DHT22;7075;53.574;10.054;2023-05-10T04:00:32;15.00;99.90
14000;DHT22;7075;53.574;10.054;2023-05-10T04:02:58;15.10;99.90
14000;DHT22;7075;53.574;10.054;2023-05-10T04:05:24;15.10;99.90
14000;DHT22;7075;53.574;10.054;2023-05-10T04:07:49;15.10;99.90
14000;DHT22;7075;53.574;10.054;2023-05-10T04:10:16;15.10;99.90
14000;DHT22;7075;53.574;10.054;2023-05-10T04:12:41;15.00;99.90
14000;DHT22;7075;53.574;10.054;2023-05-10T04:15:07;15.00;99.90
14000;DHT22;7075;53.574;10.054;2023-05-10T04:17:33;15.00;99.90
14000;DHT22;7075;53.574;10.054;2023-05-10T04:19:59;15.00;99.90
14000;DHT22;7075;53.574;10.054;2023-05-10T04:22:24;15.00;99.90
14000;DHT22;7075;53.574;10.054;2023-05-10T04:24:50;15.00;99.90
14000;DHT22;7075;53.574;10.054;2023-05-10T04:27:15;15.00;99.90
14000;DHT22;7075;53.574;10.054;2023-05-10T04:29:41;14.90;99.90
14000;DHT22;7075;53.574;10.054;2023-05-10T04:32:07;15.00;99.90
14000;DHT22;7075;53.574;10.054;2023-05-10T04:34:33;14.90;99.90
14000;DHT22;7075;53.574;10.054;2023-05-10T04:36:59;14.90;99.90
14000;DHT22;7075;53.574;10.054;2023-05-10T04:39:25;14.90;99.90
14000;DHT22;7075;53.574;10.054;2023-05-10T04:41:50;14.90;99.90
14000;DHT22;7075;53.574;10.054;2023-05-10T04:44:16;14.90;99.90
14000;DHT22;7075;53.574;10.054;2023-05-10T04:46:41;14.90;99.90
14000;DHT22;7075;53.574;10.054;2023-05-10T04:49:07;14.90;99.90
14000;DHT22;7075;53.574;10.054;2023-05-10T04:51:33;14.90;99.90
14000;DHT22;7075;53.574;10.054;2023-05-10T04:53:58;14.90;99.90
14000;DHT22;7075;53.574;10.054;2023-05-10T04:56:24;14.90;99.90
14000;DHT22;7075;53.574;10.054;2023-05-10T04:58:49;14.90;99.90
14000;DHT22;7075;53.574;10.054;2023-05-10T05:01:15;14.90;99.90
14000;DHT22;7075;53.574;10.054;2023-05-10T05:03:40;14.90;99.90
14000;DHT22;7075;53.574;10.054;2023-05-10T05:06:06;14.90;99.90
14000;DHT22;7075;53.574;10.054;2023-05-10T05:08:32;14.90;99.90
14000;DHT22;7075;53.574;10.054;2023-05-10T05:10:57;14.90;99.90
14000;DHT22;7075;53.574;10.054;2023-05-10T05:13:24;14.90;99.90
14000;DHT22;7075;53.574;10.054;2023-05-10T05:15:50;15.00;99.90
14000;DHT22;7075;53.574;10.054;2023-05-10T05:18:15;15.00;99.90
14000;DHT22;7075;53.574;10.054;2023-05-10T05:20:41;14.90;99.90
14000;DHT22;7075;53.574;10.054;2023-05-10T05:23:06;14.90;99.90
14000;DHT22;7075;53.574;10.054;2023-05-10T05:25:32;14.90;99.90
14000;DHT22;7075;53.574;10.054;2023-05-10T05:27:57;14.90;99.90
14000;DHT22;7075;53.574;10.054;2023-05-10T05:30:23;15.00;99.90
14000;DHT22;7075;53.574;10.054;2023-05-10T05:32:48;15.00;99.90
14000;DHT22;7075;53.574;10.054;2023-05-10T05:35:14;15.00;99.90
14000;DHT22;7075;53.574;10.054;2023-05-10T05:37:40;15.00;99.90
14000;DHT22;7075;53.574;10.054;2023-05-10T05:40:06;14.90;99.90
14000;DHT22;7075;53.574;10.054;2023-05-10T05:42:31;15.00;99.90
14000;DHT22;7075;53.574;10.054;2023-05-10T05:44:57;14.90;99.90
14000;DHT22;7075;53.574;10.054;2023-05-10T05:47:22;14.90;99.90
14000;DHT22;7075;53.574;10.054;2023-05-10T05:49:48;15.00;99.90
14000;DHT22;7075;53.574;10.054;2023-05-10T05:52:14;15.00;99.90
14000;DHT22;7075;53.574;10.054;2023-05-10T05:54:39;15.00;99.90
14000;DHT22;7075;53.574;10.054;2023-05-10T05:57:05;15.00;99.90
14000;DHT22;7075;53.574;10.054;2023-05-10T05:59:31;15.00;99.90
14000;DHT22;7075;53.574;10.054;2023-05-10T06:01:56;15.10;99.90
14000;DHT22;7075;53.574;10.054;2023-05-10T06:04:22;15.10;99.90
14000;DHT22;7075;53.574;10.054;2023-05-10T06:06:47;15.10;99.90
14000;DHT22;7075;53.574;10.054;2023-05-10T06:09:13;15.10;99.90
14000;DHT22;7075;53.574;10.054;2023-05-10T06:11:39;15.00;99.90
14000;DHT22;7075;53.574;10.054;2023-05-10T06:14:04;15.10;99.90
14000;DHT22;7075;53.574;10.054;2023-05-10T06:16:32;15.10;99.90
14000;DHT22;7075;53.574;10.054;2023-05-10T06:18:57;15.10;99.90
14000;DHT22;7075;53.574;10.054;2023-05-10T06:21:23;15.20;99.90
14000;DHT22;7075;53.574;10.054;2023-05-10T06:23:49;15.20;99.90
14000;DHT22;7075;53.574;10.054;2023-05-10T06:26:14;15.30;99.90
14000;DHT22;7075;53.574;10.054;2023-05-10T06:28:40;15.20;99.90
14000;DHT22;7075;53.574;10.054;2023-05-10T06:31:06;15.20;99.90
14000;DHT22;7075;53.574;10.054;2023-05-10T06:33:32;15.20;99.90
14000;DHT22;7075;53.574;10.054;2023-05-10T06:35:58;15.20;99.90
14000;DHT22;7075;53.574;10.054;2023-05-10T06:38:23;15.30;99.90
14000;DHT22;7075;53.574;10.054;2023-05-10T06:40:49;15.20;99.90
14000;DHT22;7075;53.574;10.054;2023-05-10T06:43:15;15.20;99.90
14000;DHT22;7075;53.574;10.054;2023-05-10T06:45:41;15.20;99.90
14000;DHT22;7075;53.574;10.054;2023-05-10T06:48:06;15.20;99.90
14000;DHT22;7075;53.574;10.054;2023-05-10T06:50:32;15.30;99.90
14000;DHT22;7075;53.574;10.054;2023-05-10T06:52:58;15.30;99.90
14000;DHT22;7075;53.574;10.054;2023-05-10T06:55:24;15.40;99.90
14000;DHT22;7075;53.574;10.054;2023-05-10T06:57:49;15.40;99.90
14000;DHT22;7075;53.574;10.054;2023-05-10T07:00:16;15.40;99.90
14000;DHT22;7075;53.574;10.054;2023-05-10T07:02:42;15.50;99.90
14000;DHT22;7075;53.574;10.054;2023-05-10T07:05:08;15.50;99.90
14000;DHT22;7075;53.574;10.054;2023-05-10T07:07:33;15.50;99.90
14000;DHT22;7075;53.574;10.054;2023-05-10T07:09:59;15.40;99.90
14000;DHT22;7075;53.574;10.054;2023-05-10T07:12:25;15.40;99.90
14000;DHT22;7075;53.574;10.054;2023-05-10T07:14:51;15.50;99.90
14000;DHT22;7075;53.574;10.054;2023-05-10T07:17:17;15.50;99.90
14000;DHT22;7075;53.574;10.054;2023-05-10T07:19:44;15.60;99.90
14000;DHT22;7075;53.574;10.054;2023-05-10T07:22:09;15.60;99.90
14000;DHT22;7075;53.574;10.054;2023-05-10T07:24:35;15.70;99.90
14000;DHT22;7075;53.574;10.054;2023-05-10T07:27:02;15.70;99.90
14000;DHT22;7075;53.574;10.054;2023-05-10T07:29:27;15.80;99.90
14000;DHT22;7075;53.574;10.054;2023-05-10T07:31:53;15.80;99.90
14000;DHT22;7075;53.574;10.054;2023-05-10T07:34:19;15.70;99.90
14000;DHT22;7075;53.574;10.054;2023-05-10T07:36:45;15.80;99.90
14000;DHT22;7075;53.574;10.054;2023-05-10T07:39:10;15.80;99.90
14000;DHT22;7075;53.574;10.054;2023-05-10T07:41:36;15.80;99.90
14000;DHT22;7075;53.574;10.054;2023-05-10T07:44:03;15.80;99.90
14000;DHT22;7075;53.574;10.054;2023-05-10T07:46:29;15.80;99.90
14000;DHT22;7075;53.574;10.054;2023-05-10T07:48:54;15.90;99.90
14000;DHT22;7075;53.574;10.054;2023-05-10T07:51:20;15.90;99.90
14000;DHT22;7075;53.574;10.054;2023-05-10T07:53:46;16.00;99.90
14000;DHT22;7075;53.574;10.054;2023-05-10T07:56:28;16.00;99.90
14000;DHT22;7075;53.574;10.054;2023-05-10T07:58:58;16.00;99.90
14000;DHT22;7075;53.574;10.054;2023-05-10T08:01:24;16.00;99.90
14000;DHT22;7075;53.574;10.054;2023-05-10T08:03:50;16.00;99.90
14000;DHT22;7075;53.574;10.054;2023-05-10T08:06:17;16.10;99.90
14000;DHT22;7075;53.574;10.054;2023-05-10T08:08:43;16.10;99.90
14000;DHT22;7075;53.574;10.054;2023-05-10T08:11:14;16.20;99.90
14000;DHT22;7075;53.574;10.054;2023-05-10T08:13:40;16.20;99.90
14000;DHT22;7075;53.574;10.054;2023-05-10T08:16:06;16.20;99.90
14000;DHT22;7075;53.574;10.054;2023-05-10T08:18:32;16.30;99.90
14000;DHT22;7075;53.574;10.054;2023-05-10T08:21:01;16.30;99.90
14000;DHT22;7075;53.574;10.054;2023-05-10T08:23:26;16.20;99.90
14000;DHT22;7075;53.574;10.054;2023-05-10T08:25:52;16.30;99.90
14000;DHT22;7075;53.574;10.054;2023-05-10T08:28:17;16.20;99.90
14000;DHT22;7075;53.574;10.054;2023-05-10T08:30:43;16.10;99.90
14000;DHT22;7075;53.574;10.054;2023-05-10T08:33:08;16.20;99.90
14000;DHT22;7075;53.574;10.054;2023-05-10T08:35:34;16.20;99.90
14000;DHT22;7075;53.574;10.054;2023-05-10T08:38:00;16.20;99.90
14000;DHT22;7075;53.574;10.054;2023-05-10T08:40:26;16.30;99.90
14000;DHT22;7075;53.574;10.054;2023-05-10T08:43:21;16.30;99.90
14000;DHT22;7075;53.574;10.054;2023-05-10T08:45:49;16.40;99.90
14000;DHT22;7075;53.574;10.054;2023-05-10T08:48:15;16.30;99.90
14000;DHT22;7075;53.574;10.054;2023-05-10T08:50:42;16.40;99.90
14000;DHT22;7075;53.574;10.054;2023-05-10T08:53:10;16.40;99.90
14000;DHT22;7075;53.574;10.054;2023-05-10T08:55:37;16.40;99.90
14000;DHT22;7075;53.574;10.054;2023-05-10T08:58:07;16.30;99.90
14000;DHT22;7075;53.574;10.054;2023-05-10T09:00:33;16.40;99.90
14000;DHT22;7075;53.574;10.054;2023-05-10T09:02:59;16.50;99.90
14000;DHT22;7075;53.574;10.054;2023-05-10T09:05:25;16.60;99.90
14000;DHT22;7075;53.574;10.054;2023-05-10T09:07:51;16.70;99.90
14000;DHT22;7075;53.574;10.054;2023-05-10T09:10:18;16.70;99.90
14000;DHT22;7075;53.574;10.054;2023-05-10T09:12:44;16.70;99.90
14000;DHT22;7075;53.574;10.054;2023-05-10T09:15:10;16.80;99.90
14000;DHT22;7075;53.574;10.054;2023-05-10T09:17:38;16.80;99.90
14000;DHT22;7075;53.574;10.054;2023-05-10T09:20:05;16.80;99.90
14000;DHT22;7075;53.574;10.054;2023-05-10T09:22:31;16.70;99.90
14000;DHT22;7075;53.574;10.054;2023-05-10T09:25:08;16.60;99.90
14000;DHT22;7075;53.574;10.054;2023-05-10T09:27:34;16.60;99.90
14000;DHT22;7075;53.574;10.054;2023-05-10T09:30:00;16.60;99.90
14000;DHT22;7075;53.574;10.054;2023-05-10T09:32:43;16.60;99.90
14000;DHT22;7075;53.574;10.054;2023-05-10T09:35:14;16.70;99.90
14000;DHT22;7075;53.574;10.054;2023-05-10T09:37:44;16.80;99.90
14000;DHT22;7075;53.574;10.054;2023-05-10T09:40:13;16.60;99.90
14000;DHT22;7075;53.574;10.054;2023-05-10T09:42:40;16.50;99.90
14000;DHT22;7075;53.574;10.054;2023-05-10T09:45:06;16.40;99.90
14000;DHT22;7075;53.574;10.054;2023-05-10T09:47:33;16.40;99.90
14000;DHT22;7075;53.574;10.054;2023-05-10T09:50:00;16.40;99.90
14000;DHT22;7075;53.574;10.054;2023-05-10T09:55:21;16.40;99.90
14000;DHT22;7075;53.574;10.054;2023-05-10T09:57:48;16.30;99.90
14000;DHT22;7075;53.574;10.054;2023-05-10T10:00:18;16.00;99.90
14000;DHT22;7075;53.574;10.054;2023-05-10T10:02:54;16.00;99.90
14000;DHT22;7075;53.574;10.054;2023-05-10T10:05:20;16.00;99.90
14000;DHT22;7075;53.574;10.054;2023-05-10T10:07:46;16.00;99.90
14000;DHT22;7075;53.574;10.054;2023-05-10T10:10:12;15.90;99.90
14000;DHT22;7075;53.574;10.054;2023-05-10T10:12:41;15.70;99.90
14000;DHT22;7075;53.574;10.054;2023-05-10T10:15:08;15.60;99.90
14000;DHT22;7075;53.574;10.054;2023-05-10T10:17:36;15.50;99.90
14000;DHT22;7075;53.574;10.054;2023-05-10T10:20:04;15.40;99.90
14000;DHT22;7075;53.574;10.054;2023-05-10T10:22:30;15.30;99.90
14000;DHT22;7075;53.574;10.054;2023-05-10T10:24:55;15.30;99.90
14000;DHT22;7075;53.574;10.054;2023-05-10T10:27:33;15.20;99.90
14000;DHT22;7075;53.574;10.054;2023-05-10T10:35:52;14.80;99.90
14000;DHT22;7075;53.574;10.054;2023-05-10T10:38:18;14.80;99.90
14000;DHT22;7075;53.574;10.054;2023-05-10T10:40:44;14.90;99.90
14000;DHT22;7075;53.574;10.054;2023-05-10T10:43:24;14.90;99.90
14000;DHT22;7075;53.574;10.054;2023-05-10T10:46:11;14.80;99.90
14000;DHT22;7075;53.574;10.054;2023-05-10T10:49:09;14.90;99.90
14000;DHT22;7075;53.574;10.054;2023-05-10T10:51:38;14.70;99.90
14000;DHT22;7075;53.574;10.054;2023-05-10T10:54:11;14.70;99.90
14000;DHT22;7075;53.574;10.054;2023-05-10T10:56:37;14.80;99.90
14000;DHT22;7075;53.574;10.054;2023-05-10T10:59:02;15.10;99.90
14000;DHT22;7075;53.574;10.054;2023-05-10T11:01:33;15.20;99.90
14000;DHT22;7075;53.574;10.054;2023-05-10T11:06:35;15.20;99.90
14000;DHT22;7075;53.574;10.054;2023-05-10T11:09:08;15.40;99.90
14000;DHT22;7075;53.574;10.054;2023-05-10T11:11:35;15.50;99.90
14000;DHT22;7075;53.574;10.054;2023-05-10T11:14:05;15.40;99.90
14000;DHT22;7075;53.574;10.054;2023-05-10T11:16:42;15.40;99.90
14000;DHT22;7075;53.574;10.054;2023-05-10T11:19:13;15.50;99.90
14000;DHT22;7075;53.574;10.054;2023-05-10T11:21:49;15.50;99.90
14000;DHT22;7075;53.574;10.054;2023-05-10T11:24:17;15.50;99.90
14000;DHT22;7075;53.574;10.054;2023-05-10T11:26:43;15.60;99.90
14000;DHT22;7075;53.574;10.054;2023-05-10T11:29:09;15.70;99.90
14000;DHT22;7075;53.574;10.054;2023-05-10T11:31:35;15.80;99.90
14000;DHT22;7075;53.574;10.054;2023-05-10T11:34:06;15.90;99.90
14000;DHT22;7075;53.574;10.054;2023-05-10T11:36:34;16.10;99.90
14000;DHT22;7075;53.574;10.054;2023-05-10T11:38:59;16.20;99.90
14000;DHT22;7075;53.574;10.054;2023-05-10T11:41:28;16.10;99.90
14000;DHT22;7075;53.574;10.054;2023-05-10T11:43:54;15.80;99.90
14000;DHT22;7075;53.574;10.054;2023-05-10T11:46:22;15.90;99.90
14000;DHT22;7075;53.574;10.054;2023-05-10T11:48:52;15.80;99.90
14000;DHT22;7075;53.574;10.054;2023-05-10T11:51:22;15.40;99.90
14000;DHT22;7075;53.574;10.054;2023-05-10T11:53:50;15.30;99.90
14000;DHT22;7075;53.574;10.054;2023-05-10T11:56:16;15.30;99.90
14000;DHT22;7075;53.574;10.054;2023-05-10T11:58:42;15.30;99.90
14000;DHT22;7075;53.574;10.054;2023-05-10T12:01:08;15.40;99.90
14000;DHT22;7075;53.574;10.054;2023-05-10T12:03:34;15.30;99.90
14000;DHT22;7075;53.574;10.054;2023-05-10T12:06:01;15.20;99.90
14000;DHT22;7075;53.574;10.054;2023-05-10T12:08:28;15.20;99.90
14000;DHT22;7075;53.574;10.054;2023-05-10T12:11:07;15.10;99.90
14000;DHT22;7075;53.574;10.054;2023-05-10T12:13:36;15.20;99.90
14000;DHT22;7075;53.574;10.054;2023-05-10T12:16:17;15.20;99.90
14000;DHT22;7075;53.574;10.054;2023-05-10T12:18:43;15.40;99.90
14000;DHT22;7075;53.574;10.054;2023-05-10T12:21:10;15.40;99.90
14000;DHT22;7075;53.574;10.054;2023-05-10T12:23:37;15.50;99.90
14000;DHT22;7075;53.574;10.054;2023-05-10T12:26:03;15.60;99.90
14000;DHT22;7075;53.574;10.054;2023-05-10T12:28:30;15.70;99.90
14000;DHT22;7075;53.574;10.054;2023-05-10T12:30:57;15.80;99.90
14000;DHT22;7075;53.574;10.054;2023-05-10T12:33:24;15.80;99.90
14000;DHT22;7075;53.574;10.054;2023-05-10T12:35:54;15.90;99.90
14000;DHT22;7075;53.574;10.054;2023-05-10T12:38:29;15.90;99.90
14000;DHT22;7075;53.574;10.054;2023-05-10T12:41:04;16.00;99.90
14000;DHT22;7075;53.574;10.054;2023-05-10T12:43:30;16.00;99.90
14000;DHT22;7075;53.574;10.054;2023-05-10T12:45:56;15.70;99.90
14000;DHT22;7075;53.574;10.054;2023-05-10T12:48:22;15.70;99.90
14000;DHT22;7075;53.574;10.054;2023-05-10T12:50:47;15.90;99.90
14000;DHT22;7075;53.574;10.054;2023-05-10T12:53:14;15.90;99.90
14000;DHT22;7075;53.574;10.054;2023-05-10T12:55:41;16.00;99.90
14000;DHT22;7075;53.574;10.054;2023-05-10T12:58:06;15.90;99.90
14000;DHT22;7075;53.574;10.054;2023-05-10T13:00:39;15.80;99.90
14000;DHT22;7075;53.574;10.054;2023-05-10T13:03:05;15.90;99.90
14000;DHT22;7075;53.574;10.054;2023-05-10T13:05:34;16.10;99.90
14000;DHT22;7075;53.574;10.054;2023-05-10T13:08:00;16.30;99.90
14000;DHT22;7075;53.574;10.054;2023-05-10T13:10:25;16.40;99.90
14000;DHT22;7075;53.574;10.054;2023-05-10T13:12:51;16.50;99.90
14000;DHT22;7075;53.574;10.054;2023-05-10T13:15:17;16.60;99.90
14000;DHT22;7075;53.574;10.054;2023-05-10T13:17:42;16.70;99.90
14000;DHT22;7075;53.574;10.054;2023-05-10T13:20:09;16.70;99.90
14000;DHT22;7075;53.574;10.054;2023-05-10T13:22:35;16.80;99.90
14000;DHT22;7075;53.574;10.054;2023-05-10T13:25:01;16.90;99.90
14000;DHT22;7075;53.574;10.054;2023-05-10T13:27:27;16.90;99.90
14000;DHT22;7075;53.574;10.054;2023-05-10T13:29:53;17.00;99.90
14000;DHT22;7075;53.574;10.054;2023-05-10T13:32:18;17.00;99.90
14000;DHT22;7075;53.574;10.054;2023-05-10T13:34:44;17.10;99.90
14000;DHT22;7075;53.574;10.054;2023-05-10T13:37:09;17.20;99.90
14000;DHT22;7075;53.574;10.054;2023-05-10T13:39:35;17.20;99.90
14000;DHT22;7075;53.574;10.054;2023-05-10T13:42:03;17.20;99.90
14000;DHT22;7075;53.574;10.054;2023-05-10T13:44:28;17.20;99.90
14000;DHT22;7075;53.574;10.054;2023-05-10T13:46:58;17.20;99.90
14000;DHT22;7075;53.574;10.054;2023-05-10T13:49:24;16.90;99.90
14000;DHT22;7075;53.574;10.054;2023-05-10T13:51:50;17.00;99.90
14000;DHT22;7075;53.574;10.054;2023-05-10T13:54:16;17.00;99.90
14000;DHT22;7075;53.574;10.054;2023-05-10T13:56:44;16.90;99.90
14000;DHT22;7075;53.574;10.054;2023-05-10T13:59:10;16.70;99.90
14000;DHT22;7075;53.574;10.054;2023-05-10T14:01:42;16.60;99.90
14000;DHT22;7075;53.574;10.054;2023-05-10T14:04:09;16.80;99.90
14000;DHT22;7075;53.574;10.054;2023-05-10T14:06:36;16.90;99.90
14000;DHT22;7075;53.574;10.054;2023-05-10T14:09:05;16.90;99.90
14000;DHT22;7075;53.574;10.054;2023-05-10T14:11:31;16.90;99.90
14000;DHT22;7075;53.574;10.054;2023-05-10T14:13:56;17.00;99.90
14000;DHT22;7075;53.574;10.054;2023-05-10T14:16:22;17.10;99.90
14000;DHT22;7075;53.574;10.054;2023-05-10T14:18:48;17.30;99.90
14000;DHT22;7075;53.574;10.054;2023-05-10T14:21:14;17.10;99.90
14000;DHT22;7075;53.574;10.054;2023-05-10T14:23:40;17.20;99.90
14000;DHT22;7075;53.574;10.054;2023-05-10T14:26:07;17.20;99.90
14000;DHT22;7075;53.574;10.054;2023-05-10T14:28:33;16.90;99.90
14000;DHT22;7075;53.574;10.054;2023-05-10T14:30:59;16.70;99.90
14000;DHT22;7075;53.574;10.054;2023-05-10T14:33:25;16.80;99.90
14000;DHT22;7075;53.574;10.054;2023-05-10T14:35:51;17.00;99.90
14000;DHT22;7075;53.574;10.054;2023-05-10T14:38:16;17.00;99.90
14000;DHT22;7075;53.574;10.054;2023-05-10T14:40:43;17.00;99.90
14000;DHT22;7075;53.574;10.054;2023-05-10T14:43:09;16.90;99.90
14000;DHT22;7075;53.574;10.054;2023-05-10T14:45:34;16.90;99.90
14000;DHT22;7075;53.574;10.054;2023-05-10T14:48:00;17.00;99.90
14000;DHT22;7075;53.574;10.054;2023-05-10T14:50:31;17.10;99.90
14000;DHT22;7075;53.574;10.054;2023-05-10T14:52:57;17.10;99.90
14000;DHT22;7075;53.574;10.054;2023-05-10T14:55:23;17.30;99.90
14000;DHT22;7075;53.574;10.054;2023-05-10T14:57:49;17.20;99.90
14000;DHT22;7075;53.574;10.054;2023-05-10T15:00:16;17.00;99.90
14000;DHT22;7075;53.574;10.054;2023-05-10T15:02:41;17.20;99.90
14000;DHT22;7075;53.574;10.054;2023-05-10T15:05:07;17.30;99.90
14000;DHT22;7075;53.574;10.054;2023-05-10T15:07:33;17.30;99.90
14000;DHT22;7075;53.574;10.054;2023-05-10T15:09:58;17.40;99.90
14000;DHT22;7075;53.574;10.054;2023-05-10T15:12:24;17.50;99.90
14000;DHT22;7075;53.574;10.054;2023-05-10T15:14:49;17.60;99.90
14000;DHT22;7075;53.574;10.054;2023-05-10T15:17:15;17.40;99.90
14000;DHT22;7075;53.574;10.054;2023-05-10T15:19:41;17.50;99.90
14000;DHT22;7075;53.574;10.054;2023-05-10T15:22:07;17.60;99.90
14000;DHT22;7075;53.574;10.054;2023-05-10T15:24:33;17.50;99.90
14000;DHT22;7075;53.574;10.054;2023-05-10T15:26:59;17.60;99.90
14000;DHT22;7075;53.574;10.054;2023-05-10T15:29:25;17.70;99.90
14000;DHT22;7075;53.574;10.054;2023-05-10T15:31:50;17.80;99.90
14000;DHT22;7075;53.574;10.054;2023-05-10T15:34:17;17.90;99.90
14000;DHT22;7075;53.574;10.054;2023-05-10T15:36:43;17.90;99.90
14000;DHT22;7075;53.574;10.054;2023-05-10T15:39:10;17.90;99.90
14000;DHT22;7075;53.574;10.054;2023-05-10T15:41:35;17.90;99.90
14000;DHT22;7075;53.574;10.054;2023-05-10T15:44:01;17.90;99.90
14000;DHT22;7075;53.574;10.054;2023-05-10T15:46:28;17.90;99.90
14000;DHT22;7075;53.574;10.054;2023-05-10T15:48:54;17.90;99.90
14000;DHT22;7075;53.574;10.054;2023-05-10T15:51:20;17.80;99.90
14000;DHT22;7075;53.574;10.054;2023-05-10T15:53:47;17.90;99.90
14000;DHT22;7075;53.574;10.054;2023-05-10T15:56:14;17.80;99.90